createdAt,value
2022-09-29T00:01:06.626Z,10.30
2022-09-29T00:03:34.136Z,10.50
2022-09-29T00:06:01.166Z,9.10
2022-09-29T00:08:31.507Z,13.10
2022-09-29T00:10:58.437Z,11.55
2022-09-29T00:13:25.328Z,7.72
2022-09-29T00:16:03.338Z,8.77
2022-09-29T00:18:33.155Z,7.70
2022-09-29T00:21:08.104Z,7.90
2022-09-29T00:23:36.754Z,7.63
2022-09-29T00:26:12.761Z,6.18
2022-09-29T00:28:45.585Z,8.70
2022-09-29T00:31:12.687Z,7.32
2022-09-29T00:33:40.350Z,7.15
2022-09-29T00:36:12.693Z,7.97
2022-09-29T00:38:41.681Z,7.05
2022-09-29T00:41:17.934Z,9.23
2022-09-29T00:44:07.893Z,7.13
2022-09-29T00:46:44.731Z,6.75
2022-09-29T00:49:17.678Z,6.45
2022-09-29T00:51:53.789Z,9.25
2022-09-29T00:54:22.128Z,6.32
2022-09-29T00:56:51.533Z,7.53
2022-09-29T00:59:31.581Z,9.05
2022-09-29T01:02:00.109Z,6.07
2022-09-29T01:04:27.574Z,5.80
2022-09-29T01:06:58.542Z,6.72
2022-09-29T01:09:37.563Z,6.80
2022-09-29T01:12:05.118Z,7.00
2022-09-29T01:14:35.247Z,5.45
2022-09-29T01:17:02.540Z,6.70
2022-09-29T01:19:52.844Z,4.78
2022-09-29T01:22:51.296Z,5.10
2022-09-29T01:25:27.105Z,4.88
2022-09-29T01:28:27.146Z,4.30
2022-09-29T01:31:44.690Z,7.05
2022-09-29T01:34:52.537Z,4.97
2022-09-29T01:38:19.747Z,5.15
2022-09-29T01:41:27.525Z,4.85
2022-09-29T01:44:06.123Z,7.15
2022-09-29T01:47:05.295Z,4.75
2022-09-29T01:49:39.587Z,8.45
2022-09-29T01:52:15.800Z,5.43
2022-09-29T01:55:11.779Z,5.35
2022-09-29T01:58:03.962Z,7.20
2022-09-29T02:00:43.941Z,7.00
2022-09-29T02:03:37.150Z,6.80
2022-09-29T02:06:14.558Z,5.75
2022-09-29T02:08:52.050Z,7.45
2022-09-29T02:11:19.601Z,6.60
2022-09-29T02:14:08.539Z,4.45
2022-09-29T02:16:42.862Z,6.00
2022-09-29T02:19:42.541Z,4.53
2022-09-29T02:22:09.798Z,6.90
2022-09-29T02:24:36.965Z,5.30
2022-09-29T02:27:06.159Z,4.47
2022-09-29T02:29:35.808Z,6.75
2022-09-29T02:32:09.752Z,5.55
2022-09-29T02:34:46.197Z,8.68
2022-09-29T02:37:28.056Z,5.25
2022-09-29T02:40:28.192Z,6.88
2022-09-29T02:43:22.292Z,7.28
2022-09-29T02:46:19.848Z,5.53
2022-09-29T02:49:08.554Z,6.07
2022-09-29T02:51:52.222Z,6.03
2022-09-29T02:54:45.778Z,6.60
2022-09-29T02:57:44.951Z,6.35
2022-09-29T03:00:15.948Z,7.75
2022-09-29T03:02:44.245Z,5.72
2022-09-29T03:05:19.037Z,6.93
2022-09-29T03:07:46.358Z,5.38
2022-09-29T03:10:16.545Z,6.55
2022-09-29T03:12:43.437Z,5.43
2022-09-29T03:15:12.574Z,5.18
2022-09-29T03:17:40.918Z,8.25
2022-09-29T03:20:08.442Z,6.38
2022-09-29T03:22:35.472Z,6.55
2022-09-29T03:25:06.267Z,4.55
2022-09-29T03:27:33.901Z,5.95
2022-09-29T03:30:00.707Z,6.30
2022-09-29T03:32:27.778Z,7.22
2022-09-29T03:34:55.689Z,7.45
2022-09-29T03:37:22.529Z,7.93
2022-09-29T03:39:49.384Z,5.75
2022-09-29T03:42:16.588Z,7.45
2022-09-29T03:44:43.536Z,8.15
2022-09-29T03:47:10.363Z,5.07
2022-09-29T03:49:37.265Z,6.32
2022-09-29T03:52:04.132Z,6.50
2022-09-29T03:54:31.630Z,5.40
2022-09-29T03:56:58.459Z,4.82
2022-09-29T03:59:25.387Z,6.97
2022-09-29T04:01:52.356Z,6.38
2022-09-29T04:04:19.290Z,8.98
2022-09-29T04:06:46.161Z,5.18
2022-09-29T04:09:13.007Z,8.00
2022-09-29T04:11:40.037Z,6.63
2022-09-29T04:14:07.089Z,5.20
2022-09-29T04:16:34.178Z,6.18
2022-09-29T04:19:20.937Z,6.15
2022-09-29T04:21:48.092Z,6.10
2022-09-29T04:24:14.913Z,6.25
2022-09-29T04:26:41.998Z,5.53
2022-09-29T04:29:11.089Z,5.72
2022-09-29T04:31:38.147Z,7.70
2022-09-29T04:34:05.176Z,6.85
2022-09-29T04:36:31.994Z,7.65
2022-09-29T04:38:59.179Z,6.32
2022-09-29T04:41:26.082Z,5.68
2022-09-29T04:43:52.968Z,5.85
2022-09-29T04:46:19.855Z,7.60
2022-09-29T04:48:46.828Z,6.32
2022-09-29T04:51:13.744Z,6.85
2022-09-29T04:53:40.692Z,6.32
2022-09-29T04:56:09.078Z,5.95
2022-09-29T04:58:36.504Z,5.80
2022-09-29T05:01:15.079Z,11.95
2022-09-29T05:03:42.640Z,7.80
2022-09-29T05:06:10.619Z,6.90
2022-09-29T05:08:37.560Z,5.93
2022-09-29T05:11:10.239Z,6.05
2022-09-29T05:13:38.136Z,9.75
2022-09-29T05:16:05.620Z,5.93
2022-09-29T05:18:33.426Z,6.22
2022-09-29T05:21:28.887Z,6.65
2022-09-29T05:23:56.396Z,7.65
2022-09-29T05:26:23.913Z,11.80
2022-09-29T05:28:50.910Z,8.02
2022-09-29T05:31:19.064Z,8.32
2022-09-29T05:33:45.975Z,12.68
2022-09-29T05:36:13.326Z,14.13
2022-09-29T05:38:40.586Z,13.70
2022-09-29T05:41:12.112Z,7.80
2022-09-29T05:43:43.785Z,7.55
2022-09-29T05:46:11.389Z,6.65
2022-09-29T05:48:38.849Z,9.18
2022-09-29T05:51:12.399Z,11.90
2022-09-29T05:53:41.022Z,12.63
2022-09-29T05:56:12.084Z,8.27
2022-09-29T05:58:40.869Z,9.90
2022-09-29T06:01:17.283Z,11.88
2022-09-29T06:03:48.214Z,8.80
2022-09-29T06:06:17.490Z,10.10
2022-09-29T06:08:45.514Z,14.07
2022-09-29T06:11:22.958Z,14.52
2022-09-29T06:13:53.426Z,14.85
2022-09-29T06:16:24.691Z,10.45
2022-09-29T06:18:52.421Z,13.80
2022-09-29T06:21:23.860Z,7.70
2022-09-29T06:23:53.713Z,11.07
2022-09-29T06:26:24.223Z,12.65
2022-09-29T06:28:53.009Z,10.55
2022-09-29T06:31:23.322Z,10.43
2022-09-29T06:33:51.231Z,9.75
2022-09-29T06:36:48.513Z,9.90
2022-09-29T06:39:16.517Z,9.00
2022-09-29T06:41:56.088Z,11.23
2022-09-29T06:44:28.066Z,15.07
2022-09-29T06:46:55.546Z,9.70
2022-09-29T06:49:23.684Z,7.05
2022-09-29T06:51:51.356Z,8.07
2022-09-29T06:54:22.138Z,6.75
2022-09-29T06:56:53.896Z,7.43
2022-09-29T06:59:21.482Z,7.95
2022-09-29T07:01:50.597Z,6.53
2022-09-29T07:04:20.753Z,9.32
2022-09-29T07:06:48.176Z,8.18
2022-09-29T07:09:18.053Z,7.28
2022-09-29T07:11:51.887Z,8.38
2022-09-29T07:14:22.836Z,8.93
2022-09-29T07:16:51.619Z,9.88
2022-09-29T07:19:19.964Z,7.30
2022-09-29T07:21:47.913Z,8.10
2022-09-29T07:24:15.561Z,9.27
2022-09-29T07:26:42.626Z,10.90
2022-09-29T07:29:14.944Z,10.15
2022-09-29T07:31:51.584Z,7.40
2022-09-29T07:34:20.514Z,9.13
2022-09-29T07:36:48.005Z,9.82
2022-09-29T07:39:15.057Z,9.38
2022-09-29T07:41:42.199Z,9.55
2022-09-29T07:44:09.290Z,7.20
2022-09-29T07:46:36.262Z,7.85
2022-09-29T07:49:03.214Z,9.43
2022-09-29T07:51:30.268Z,9.40
2022-09-29T07:54:05.106Z,9.23
2022-09-29T07:56:33.041Z,9.27
2022-09-29T07:59:00.597Z,9.07
2022-09-29T08:01:27.733Z,8.80
2022-09-29T08:03:56.086Z,9.13
2022-09-29T08:06:25.645Z,8.88
2022-09-29T08:09:03.603Z,7.25
2022-09-29T08:11:40.829Z,7.78
2022-09-29T08:14:10.215Z,7.75
2022-09-29T08:16:40.170Z,8.00
2022-09-29T08:19:07.458Z,6.65
2022-09-29T08:21:37.143Z,7.72
2022-09-29T08:24:06.042Z,6.60
2022-09-29T08:26:43.208Z,6.78
2022-09-29T08:29:16.765Z,7.57
2022-09-29T08:31:45.375Z,7.07
2022-09-29T08:34:13.650Z,8.00
2022-09-29T08:36:41.559Z,7.72
2022-09-29T08:39:12.186Z,6.78
2022-09-29T08:42:01.071Z,9.05
2022-09-29T08:44:45.700Z,8.38
2022-09-29T08:47:24.813Z,12.07
2022-09-29T08:50:05.542Z,10.90
2022-09-29T08:52:51.664Z,8.93
2022-09-29T08:55:22.196Z,10.15
2022-09-29T08:58:02.990Z,8.05
2022-09-29T09:01:04.501Z,6.90
2022-09-29T09:03:57.368Z,7.65
2022-09-29T09:06:41.778Z,7.78
2022-09-29T09:09:30.487Z,9.05
2022-09-29T09:12:30.118Z,11.43
2022-09-29T09:15:15.964Z,10.85
2022-09-29T09:17:55.842Z,9.95
2022-09-29T09:20:41.486Z,13.10
2022-09-29T09:23:14.295Z,8.10
2022-09-29T09:25:54.949Z,12.57
2022-09-29T09:28:29.316Z,7.53
2022-09-29T09:31:25.122Z,5.63
2022-09-29T09:40:15.521Z,7.35
2022-09-29T09:42:52.824Z,6.05
2022-09-29T09:45:48.905Z,7.18
2022-09-29T09:48:32.563Z,6.32
2022-09-29T09:51:32.104Z,5.90
2022-09-29T09:54:07.022Z,5.55
2022-09-29T09:57:31.718Z,6.32
2022-09-29T10:00:33.877Z,5.50
2022-09-29T10:03:06.451Z,4.65
2022-09-29T10:05:45.367Z,6.57
2022-09-29T10:08:39.484Z,5.32
2022-09-29T10:11:19.292Z,5.50
2022-09-29T10:13:48.362Z,4.93
2022-09-29T10:16:56.200Z,7.07
2022-09-29T10:19:51.218Z,5.40
2022-09-29T10:25:05.882Z,3.40
2022-09-29T10:27:32.829Z,6.97
2022-09-29T10:30:00.193Z,5.57
2022-09-29T10:32:36.781Z,3.58
2022-09-29T10:35:24.371Z,5.22
2022-09-29T10:38:26.830Z,3.90
2022-09-29T10:40:58.373Z,4.57
2022-09-29T10:43:44.348Z,3.15
2022-09-29T10:46:50.382Z,3.88
2022-09-29T10:49:20.187Z,3.88
2022-09-29T10:52:02.211Z,4.85
2022-09-29T10:54:53.158Z,9.60
2022-09-29T10:57:27.209Z,4.90
2022-09-29T10:59:57.290Z,2.90
2022-09-29T11:02:40.824Z,2.60
2022-09-29T11:05:21.988Z,3.10
2022-09-29T11:07:52.273Z,3.10
2022-09-29T11:10:37.371Z,2.17
2022-09-29T11:13:22.171Z,3.40
2022-09-29T11:15:50.410Z,3.55
2022-09-29T11:18:38.175Z,2.00
2022-09-29T11:21:20.814Z,2.92
2022-09-29T11:24:29.528Z,1.42
2022-09-29T11:27:31.501Z,2.05
2022-09-29T11:31:03.572Z,3.17
2022-09-29T11:33:46.365Z,4.72
2022-09-29T11:36:48.930Z,3.15
2022-09-29T11:39:46.168Z,1.85
2022-09-29T11:42:42.173Z,2.17
2022-09-29T11:48:30.746Z,1.65
2022-09-29T11:52:02.493Z,2.53
2022-09-29T11:55:37.382Z,1.33
2022-09-29T11:58:46.191Z,2.03
2022-09-29T12:02:21.132Z,1.17
2022-09-29T12:05:02.061Z,0.90
2022-09-29T12:07:48.369Z,1.38
2022-09-29T12:10:50.239Z,1.33
2022-09-29T12:13:30.207Z,1.20
2022-09-29T12:16:08.822Z,1.50
2022-09-29T12:18:53.499Z,1.38
2022-09-29T12:21:46.890Z,0.80
2022-09-29T12:24:41.166Z,1.65
2022-09-29T12:27:19.880Z,2.15
2022-09-29T12:29:58.424Z,2.22
2022-09-29T12:32:42.704Z,2.00
2022-09-29T12:35:23.660Z,1.52
2022-09-29T12:38:10.137Z,2.75
2022-09-29T12:40:44.422Z,1.83
2022-09-29T12:43:43.971Z,0.77
2022-09-29T12:46:22.638Z,0.93
2022-09-29T12:49:08.598Z,1.42
2022-09-29T12:51:45.774Z,1.73
2022-09-29T12:54:45.792Z,0.82
2022-09-29T12:57:26.494Z,0.80
2022-09-29T13:00:04.235Z,1.98
2022-09-29T13:03:02.559Z,2.40
2022-09-29T13:05:45.056Z,1.98
2022-09-29T13:08:47.429Z,2.35
2022-09-29T13:11:42.080Z,2.72
2022-09-29T13:14:42.623Z,0.93
2022-09-29T13:17:41.069Z,2.28
2022-09-29T13:20:58.447Z,2.17
2022-09-29T13:24:09.098Z,1.98
2022-09-29T13:27:08.872Z,0.90
2022-09-29T13:29:49.231Z,1.83
2022-09-29T13:32:17.142Z,1.95
2022-09-29T13:34:54.428Z,3.22
2022-09-29T13:37:25.131Z,1.67
2022-09-29T13:40:24.470Z,2.47
2022-09-29T13:42:55.735Z,2.67
2022-09-29T13:45:31.578Z,1.92
2022-09-29T13:48:03.110Z,2.10
2022-09-29T13:51:23.884Z,2.45
2022-09-29T13:54:22.752Z,2.33
2022-09-29T13:56:59.852Z,2.17
2022-09-29T13:59:31.410Z,1.40
2022-09-29T14:01:59.159Z,2.08
2022-09-29T14:04:51.882Z,2.25
2022-09-29T14:07:44.922Z,4.60
2022-09-29T14:10:35.285Z,2.97
2022-09-29T14:13:15.944Z,2.65
2022-09-29T14:16:05.885Z,2.55
2022-09-29T14:18:52.334Z,1.92
2022-09-29T14:21:57.025Z,2.20
2022-09-29T14:24:42.121Z,4.45
2022-09-29T14:30:01.988Z,1.95
2022-09-29T14:32:46.747Z,1.88
2022-09-29T14:35:38.910Z,1.90
2022-09-29T14:38:27.616Z,1.98
2022-09-29T14:41:08.003Z,2.50
2022-09-29T14:43:49.328Z,3.65
2022-09-29T14:46:50.007Z,3.35
2022-09-29T14:50:22.400Z,3.30
2022-09-29T14:53:42.127Z,2.10
2022-09-29T14:56:48.500Z,2.17
2022-09-29T15:02:21.620Z,1.50
2022-09-29T15:04:50.008Z,3.53
2022-09-29T15:07:21.635Z,2.63
2022-09-29T15:09:58.537Z,1.13
2022-09-29T15:12:31.711Z,1.83
2022-09-29T15:15:01.962Z,2.13
2022-09-29T15:17:55.495Z,1.58
2022-09-29T15:20:59.544Z,2.70
2022-09-29T15:23:58.591Z,2.25
2022-09-29T15:26:32.437Z,2.97
2022-09-29T15:29:00.715Z,1.85
2022-09-29T15:31:34.163Z,3.08
2022-09-29T15:34:04.272Z,2.22
2022-09-29T15:36:39.910Z,2.55
2022-09-29T15:39:23.142Z,1.83
2022-09-29T15:42:02.129Z,2.67
2022-09-29T15:44:33.590Z,2.03
2022-09-29T15:47:01.054Z,2.97
2022-09-29T15:49:29.912Z,3.05
2022-09-29T15:52:02.535Z,3.67
2022-09-29T15:54:39.875Z,2.58
2022-09-29T15:57:26.771Z,2.50
2022-09-29T15:59:55.946Z,2.70
2022-09-29T16:02:42.824Z,3.60
2022-09-29T16:05:23.122Z,2.63
2022-09-29T16:08:00.511Z,3.13
2022-09-29T16:10:31.590Z,3.30
2022-09-29T16:13:14.696Z,3.42
2022-09-29T16:15:47.467Z,4.47
2022-09-29T16:18:31.842Z,2.75
2022-09-29T16:21:06.908Z,2.90
2022-09-29T16:26:55.348Z,3.22
2022-09-29T16:29:34.632Z,3.95
2022-09-29T16:32:39.819Z,2.50
2022-09-29T16:35:40.123Z,2.65
2022-09-29T16:38:36.252Z,3.72
2022-09-29T16:41:35.662Z,2.78
2022-09-29T16:44:10.717Z,3.88
2022-09-29T16:49:26.359Z,5.55
2022-09-29T16:52:01.422Z,4.00
2022-09-29T16:57:21.761Z,3.50
2022-09-29T16:59:52.771Z,5.35
2022-09-29T17:02:22.807Z,7.10
2022-09-29T17:04:52.257Z,4.68
2022-09-29T17:07:23.623Z,7.95
2022-09-29T17:09:58.113Z,6.47
2022-09-29T17:12:29.154Z,6.85
2022-09-29T17:14:57.212Z,6.85
2022-09-29T17:17:28.936Z,5.10
2022-09-29T17:19:56.793Z,5.50
2022-09-29T17:22:36.766Z,5.65
2022-09-29T17:25:05.167Z,6.53
2022-09-29T17:27:52.362Z,5.55
2022-09-29T17:30:23.532Z,6.63
2022-09-29T17:32:54.298Z,6.05
2022-09-29T17:35:25.976Z,4.45
2022-09-29T17:37:53.500Z,6.32
2022-09-29T17:40:48.296Z,8.02
2022-09-29T17:43:17.723Z,9.35
2022-09-29T17:45:45.892Z,9.55
2022-09-29T17:48:13.369Z,6.45
2022-09-29T17:50:46.848Z,9.23
2022-09-29T17:53:17.700Z,8.23
2022-09-29T17:55:49.593Z,8.25
2022-09-29T17:58:19.240Z,7.43
2022-09-29T18:00:50.180Z,9.48
2022-09-29T18:03:19.774Z,8.48
2022-09-29T18:05:59.897Z,10.57
2022-09-29T18:08:29.649Z,10.65
2022-09-29T18:11:10.911Z,9.15
2022-09-29T18:13:39.160Z,7.32
2022-09-29T18:16:14.567Z,8.73
2022-09-29T18:18:41.772Z,13.73
2022-09-29T18:21:10.019Z,7.30
2022-09-29T18:23:37.573Z,7.35
2022-09-29T18:26:06.760Z,8.10
2022-09-29T18:28:34.023Z,10.85
2022-09-29T18:31:15.083Z,9.93
2022-09-29T18:33:42.327Z,9.10
2022-09-29T18:36:11.339Z,10.85
2022-09-29T18:38:38.174Z,11.75
2022-09-29T18:41:12.707Z,10.13
2022-09-29T18:43:39.530Z,10.07
2022-09-29T18:46:06.550Z,7.45
2022-09-29T18:48:33.512Z,9.20
2022-09-29T18:51:00.756Z,8.63
2022-09-29T18:53:28.061Z,10.07
2022-09-29T18:56:01.297Z,10.93
2022-09-29T18:58:28.646Z,10.82
2022-09-29T19:00:57.010Z,11.25
2022-09-29T19:03:27.314Z,9.80
2022-09-29T19:05:55.942Z,9.65
2022-09-29T19:08:24.131Z,10.18
2022-09-29T19:10:58.471Z,10.85
2022-09-29T19:13:26.089Z,11.38
2022-09-29T19:15:57.886Z,9.85
2022-09-29T19:18:26.673Z,12.05
2022-09-29T19:20:57.371Z,10.30
2022-09-29T19:23:25.574Z,11.40
2022-09-29T19:25:55.470Z,14.07
2022-09-29T19:28:23.768Z,13.15
2022-09-29T19:30:51.013Z,11.40
2022-09-29T19:33:22.677Z,12.63
2022-09-29T19:35:54.754Z,11.63
2022-09-29T19:38:23.155Z,10.55
2022-09-29T19:40:51.648Z,13.48
2022-09-29T19:43:21.392Z,9.50
2022-09-29T19:45:49.609Z,9.70
2022-09-29T19:48:20.609Z,10.38
2022-09-29T19:51:13.854Z,13.00
2022-09-29T19:53:43.407Z,12.35
2022-09-29T19:56:13.929Z,9.07
2022-09-29T19:58:41.251Z,13.70
2022-09-29T20:01:11.481Z,10.48
2022-09-29T20:03:39.168Z,11.18
2022-09-29T20:06:06.754Z,10.60
2022-09-29T20:08:34.740Z,9.18
2022-09-29T20:11:11.095Z,9.70
2022-09-29T20:13:38.930Z,12.35
2022-09-29T20:16:07.078Z,9.38
2022-09-29T20:18:36.780Z,10.27
2022-09-29T20:21:15.058Z,9.52
2022-09-29T20:23:41.982Z,12.15
2022-09-29T20:26:09.168Z,9.75
2022-09-29T20:28:37.823Z,8.93
2022-09-29T20:31:07.656Z,9.52
2022-09-29T20:33:36.484Z,11.90
2022-09-29T20:36:05.725Z,12.00
2022-09-29T20:38:39.350Z,10.63
2022-09-29T20:41:07.625Z,10.82
2022-09-29T20:43:34.754Z,12.05
2022-09-29T20:46:05.976Z,11.45
2022-09-29T20:48:39.238Z,10.35
2022-09-29T20:51:15.971Z,11.88
2022-09-29T20:53:50.005Z,12.95
2022-09-29T20:56:18.872Z,10.82
2022-09-29T20:58:50.067Z,11.40
2022-09-29T21:01:20.778Z,10.45
2022-09-29T21:04:05.344Z,13.43
2022-09-29T21:06:36.402Z,14.98
2022-09-29T21:09:06.488Z,13.95
2022-09-29T21:11:39.520Z,13.75
2022-09-29T21:14:11.006Z,16.77
2022-09-29T21:16:44.843Z,13.50
2022-09-29T21:19:13.128Z,12.02
2022-09-29T21:21:43.944Z,13.52
2022-09-29T21:24:14.399Z,11.85
2022-09-29T21:26:41.953Z,12.05
2022-09-29T21:29:17.464Z,11.05
2022-09-29T21:31:45.495Z,10.55
2022-09-29T21:34:14.691Z,11.73
2022-09-29T21:36:42.362Z,12.77
2022-09-29T21:39:10.125Z,10.25
2022-09-29T21:41:42.788Z,14.35
2022-09-29T21:44:17.578Z,12.05
2022-09-29T21:46:45.404Z,15.00
2022-09-29T21:49:14.423Z,13.07
2022-09-29T21:51:46.390Z,11.70
2022-09-29T21:54:18.495Z,15.80
2022-09-29T21:56:46.998Z,14.60
2022-09-29T21:59:17.386Z,15.82
2022-09-29T22:01:45.945Z,17.90
2022-09-29T22:04:13.888Z,18.15
2022-09-29T22:06:44.544Z,19.83
2022-09-29T22:09:19.099Z,21.33
2022-09-29T22:11:46.730Z,19.90
2022-09-29T22:14:15.872Z,20.02
2022-09-29T22:16:43.283Z,18.70
2022-09-29T22:19:22.833Z,17.15
2022-09-29T22:21:51.332Z,21.23
2022-09-29T22:24:18.131Z,17.45
2022-09-29T22:26:44.973Z,17.75
2022-09-29T22:29:13.548Z,16.05
2022-09-29T22:31:40.894Z,15.90
2022-09-29T22:34:08.711Z,16.52
2022-09-29T22:36:35.942Z,15.10
2022-09-29T22:39:05.604Z,15.82
2022-09-29T22:41:33.292Z,15.75
2022-09-29T22:44:00.962Z,14.60
2022-09-29T22:46:30.824Z,13.98
2022-09-29T22:48:58.663Z,16.80
2022-09-29T22:51:26.116Z,11.15
2022-09-29T22:53:52.999Z,14.90
2022-09-29T22:56:28.196Z,18.30
2022-09-29T22:59:01.047Z,12.98
2022-09-29T23:01:28.030Z,13.70
2022-09-29T23:03:55.078Z,14.68
2022-09-29T23:06:22.012Z,15.50
2022-09-29T23:08:49.066Z,15.50
2022-09-29T23:11:20.667Z,14.10
2022-09-29T23:13:47.859Z,18.63
2022-09-29T23:16:16.641Z,12.07
2022-09-29T23:18:47.177Z,14.02
2022-09-29T23:21:19.541Z,11.70
2022-09-29T23:24:00.025Z,13.23
2022-09-29T23:26:29.913Z,14.35
2022-09-29T23:28:57.206Z,12.82
2022-09-29T23:31:24.669Z,15.45
2022-09-29T23:33:58.177Z,12.27
2022-09-29T23:36:28.587Z,15.02
2022-09-29T23:39:10.734Z,12.45
2022-09-29T23:41:47.499Z,10.18
2022-09-29T23:44:26.870Z,13.63
2022-09-29T23:46:55.754Z,13.38
2022-09-29T23:49:28.860Z,19.30
2022-09-29T23:51:59.715Z,11.57
2022-09-29T23:54:29.506Z,13.80
2022-09-29T23:56:57.978Z,12.82
2022-09-29T23:59:25.752Z,11.30
